Center City, Minnesota
Current Conditions -  °F | °C
As of 3:55 PM on Tuesday 25 Nov 2014 (Local Time) from KOEO Reporting Station
Overcast Overcast  
Wind Chill: 22°   Ceiling: 3200
Heat Index: 22°   Visibility: 10mi
Dew Point: 13°   Wind: 3mph
Humidity: 70%   Direction: 170°S
Pressure: 30.07"   Gusts: NA
Location:  45.39°N, 92.82°W
Report Text: KOEO 252155Z AUTO 17003KT 10SM BKN032 OVC055 M06/M10 A3007 RMK AO2 T10571103
Loading
Personal Weather Stations






























Interactive Weather Map New forecast layout! Learn more

10-Day Weather Forecast

Advertisements
Track Severe Weather on mobile